Time;durP1;ratioP1;P1;durP2;ratioP2;P2;SDS_P1;SDS_P2;PMS_P1;PMS_P2;Temp;Humidity;BMP_temperature;BMP_pressure;BME280_temperature;BME280_humidity;BME280_pressure;Samples;Min_cycle;Max_cycle;Signal;HPM_P1;HPM_P2
2023/05/30 00:02:24;;;;;;;8.27;2.97;;;11.60;99.90;;;;;;5047095;28;20235;-57
2023/05/30 00:04:55;;;;;;;12.23;2.90;;;11.70;99.90;;;;;;5055676;28;20647;-57
2023/05/30 00:07:23;;;;;;;9.27;2.50;;;11.50;99.90;;;;;;5052588;28;20234;-57
2023/05/30 00:09:51;;;;;;;10.93;3.63;;;11.40;99.90;;;;;;5056467;28;20585;-56
2023/05/30 00:12:19;;;;;;;13.43;3.40;;;11.40;99.90;;;;;;5056356;28;20222;-57
2023/05/30 00:14:48;;;;;;;10.30;3.07;;;11.40;99.90;;;;;;5055805;28;20232;-57
2023/05/30 00:17:17;;;;;;;10.70;2.83;;;11.30;99.90;;;;;;5049272;28;20226;-57
2023/05/30 00:19:46;;;;;;;12.57;3.23;;;11.40;99.90;;;;;;5052650;28;20238;-57
2023/05/30 00:22:14;;;;;;;11.50;3.33;;;11.30;99.90;;;;;;5054712;28;20281;-57
2023/05/30 00:24:42;;;;;;;9.60;3.17;;;11.30;99.90;;;;;;5048091;28;20324;-55
2023/05/30 00:27:10;;;;;;;10.70;3.10;;;11.30;99.90;;;;;;5056014;28;20222;-57
2023/05/30 00:29:38;;;;;;;7.73;2.53;;;11.20;99.90;;;;;;5055895;28;20304;-57
2023/05/30 00:32:10;;;;;;;7.93;2.87;;;11.30;99.90;;;;;;5051684;28;20722;-57
2023/05/30 00:34:38;;;;;;;8.93;2.90;;;11.30;99.90;;;;;;5038770;28;20254;-56
2023/05/30 00:37:08;;;;;;;11.27;3.00;;;11.30;99.90;;;;;;5054587;28;20223;-57
2023/05/30 00:39:36;;;;;;;11.47;2.93;;;11.20;99.90;;;;;;5054535;28;20705;-57
2023/05/30 00:42:05;;;;;;;11.43;3.30;;;11.10;99.90;;;;;;5055751;28;20283;-55
2023/05/30 00:44:34;;;;;;;8.80;2.70;;;11.10;99.90;;;;;;5055656;28;20236;-57
2023/05/30 00:47:02;;;;;;;8.23;2.83;;;11.30;99.90;;;;;;5052107;28;20233;-57
2023/05/30 00:49:32;;;;;;;6.80;2.63;;;11.30;99.90;;;;;;5048944;28;20609;-57
2023/05/30 00:52:00;;;;;;;10.37;3.13;;;11.30;99.90;;;;;;5055571;28;20227;-57
2023/05/30 00:54:28;;;;;;;11.83;3.00;;;11.20;99.90;;;;;;5048661;28;20217;-57
2023/05/30 00:56:57;;;;;;;10.57;2.90;;;11.20;99.90;;;;;;5055458;28;20309;-55
2023/05/30 00:59:25;;;;;;;12.60;3.40;;;11.10;99.90;;;;;;5055364;28;20598;-57
2023/05/30 01:01:53;;;;;;;8.57;3.03;;;11.00;99.90;;;;;;5055034;28;20253;-57
2023/05/30 01:04:22;;;;;;;11.70;2.77;;;11.00;99.90;;;;;;5050450;28;20228;-57
2023/05/30 01:06:51;;;;;;;7.60;3.13;;;10.90;99.90;;;;;;5065140;28;20232;-57
2023/05/30 01:09:19;;;;;;;10.50;2.83;;;10.90;99.90;;;;;;5055396;28;20581;-57
2023/05/30 01:11:59;;;;;;;10.70;3.00;;;10.80;99.90;;;;;;5053938;28;20701;-57
2023/05/30 01:14:37;;;;;;;8.77;2.87;;;10.70;99.90;;;;;;5053658;28;20225;-57
2023/05/30 01:17:14;;;;;;;9.90;3.10;;;10.80;99.90;;;;;;5053763;28;20222;-57
2023/05/30 01:19:56;;;;;;;10.63;3.17;;;10.70;99.90;;;;;;5048495;28;20220;-57
2023/05/30 01:22:34;;;;;;;9.13;2.73;;;10.70;99.90;;;;;;5054770;28;20226;-57
2023/05/30 01:25:27;;;;;;;8.03;2.67;;;10.70;99.90;;;;;;5048127;28;20217;-57
2023/05/30 01:28:09;;;;;;;9.87;3.10;;;10.80;99.90;;;;;;5053506;28;20241;-57
2023/05/30 01:30:41;;;;;;;13.87;2.83;;;10.80;99.90;;;;;;5050387;28;20267;-57
2023/05/30 01:33:09;;;;;;;9.73;3.03;;;10.80;99.90;;;;;;5050427;28;20225;-57
2023/05/30 01:35:37;;;;;;;13.63;3.57;;;10.80;99.90;;;;;;5048161;28;20260;-57
2023/05/30 01:38:05;;;;;;;12.07;3.20;;;10.80;99.90;;;;;;5046301;28;20578;-56
2023/05/30 01:40:34;;;;;;;9.83;3.20;;;10.70;99.90;;;;;;5035241;28;20317;-57
2023/05/30 01:43:15;;;;;;;8.67;3.03;;;10.70;99.90;;;;;;5034824;28;20309;-57
2023/05/30 01:45:51;;;;;;;11.03;3.10;;;10.70;99.90;;;;;;5033321;28;20277;-57
2023/05/30 01:48:28;;;;;;;10.80;2.97;;;10.70;99.90;;;;;;5035481;28;20629;-55
2023/05/30 01:50:59;;;;;;;7.83;3.13;;;10.70;99.90;;;;;;5043563;28;20709;-56
2023/05/30 01:53:32;;;;;;;12.33;3.67;;;10.70;99.90;;;;;;5042990;28;20283;-57
2023/05/30 01:56:01;;;;;;;9.03;3.43;;;10.60;99.90;;;;;;5053772;28;20221;-57
2023/05/30 01:58:35;;;;;;;8.70;3.40;;;10.60;99.90;;;;;;5052943;28;20772;-57
2023/05/30 02:01:05;;;;;;;6.30;3.13;;;10.50;99.90;;;;;;5052641;28;20233;-57
2023/05/30 02:03:33;;;;;;;8.43;3.30;;;10.50;99.90;;;;;;5039647;28;20721;-56
2023/05/30 02:06:01;;;;;;;11.77;3.90;;;10.40;99.90;;;;;;5052346;28;20695;-56
2023/05/30 02:08:30;;;;;;;11.00;3.97;;;10.30;99.90;;;;;;5052400;28;20225;-56
2023/05/30 02:10:58;;;;;;;12.33;3.67;;;10.30;99.90;;;;;;5052811;28;20316;-57
2023/05/30 02:13:26;;;;;;;13.53;3.77;;;10.40;99.90;;;;;;5048878;28;20249;-55
2023/05/30 02:15:56;;;;;;;8.03;3.30;;;10.50;99.90;;;;;;5032852;28;20234;-57
2023/05/30 02:18:27;;;;;;;10.80;3.43;;;10.60;99.90;;;;;;5036860;28;20312;-55
2023/05/30 02:20:55;;;;;;;8.00;3.20;;;10.60;99.90;;;;;;5053662;28;20253;-57
2023/05/30 02:23:23;;;;;;;9.13;3.07;;;10.70;99.90;;;;;;5049159;28;20312;-57
2023/05/30 02:25:51;;;;;;;11.27;4.10;;;10.70;99.90;;;;;;5052222;28;20224;-57
2023/05/30 02:28:19;;;;;;;8.73;3.00;;;10.70;99.90;;;;;;5053854;28;20229;-56
2023/05/30 02:30:48;;;;;;;8.43;3.00;;;10.70;99.90;;;;;;5051749;28;20240;-57
2023/05/30 02:33:19;;;;;;;10.13;3.70;;;10.70;99.90;;;;;;5049338;28;20758;-57
2023/05/30 02:35:47;;;;;;;8.53;3.00;;;10.70;99.90;;;;;;5051791;28;20316;-57
2023/05/30 02:38:15;;;;;;;7.63;2.57;;;10.80;99.90;;;;;;5053562;28;20240;-57
2023/05/30 02:40:43;;;;;;;7.40;2.83;;;10.80;99.90;;;;;;5052738;28;20756;-58
2023/05/30 02:43:12;;;;;;;10.73;3.20;;;10.70;99.90;;;;;;5052204;28;20234;-56
2023/05/30 02:45:49;;;;;;;6.60;2.83;;;10.80;99.90;;;;;;5052123;28;20751;-56
2023/05/30 02:48:20;;;;;;;11.80;3.63;;;10.90;99.90;;;;;;5051573;28;20240;-57
2023/05/30 02:50:48;;;;;;;11.83;3.40;;;10.90;99.90;;;;;;5049827;28;20579;-55
2023/05/30 02:53:21;;;;;;;8.60;3.33;;;10.80;99.90;;;;;;5047677;28;20227;-57
2023/05/30 02:55:50;;;;;;;10.53;3.50;;;10.80;99.90;;;;;;5050044;28;20226;-56
2023/05/30 02:58:41;;;;;;;10.37;3.43;;;10.90;99.90;;;;;;5052984;28;20256;-57
2023/05/30 03:01:24;;;;;;;6.30;2.93;;;10.80;99.90;;;;;;5051475;28;20280;-56
2023/05/30 03:03:54;;;;;;;9.90;3.20;;;10.80;99.90;;;;;;5048799;28;20218;-56
2023/05/30 03:06:31;;;;;;;12.83;3.73;;;10.70;99.90;;;;;;5054848;28;20231;-57
2023/05/30 03:09:08;;;;;;;8.00;3.30;;;10.70;99.90;;;;;;5048448;28;20251;-57
2023/05/30 03:11:37;;;;;;;10.03;3.27;;;10.80;99.90;;;;;;5031724;28;20220;-57
2023/05/30 03:14:06;;;;;;;9.07;3.13;;;10.80;99.90;;;;;;5032037;28;20240;-57
2023/05/30 03:16:34;;;;;;;7.63;3.27;;;10.80;99.90;;;;;;5033092;28;20676;-57
2023/05/30 03:19:05;;;;;;;9.00;3.10;;;10.80;99.90;;;;;;5039481;28;20222;-57
2023/05/30 03:21:36;;;;;;;11.10;3.20;;;11.00;99.90;;;;;;5051121;28;20271;-56
2023/05/30 03:24:05;;;;;;;11.47;3.80;;;11.00;99.90;;;;;;5044793;28;20221;-57
2023/05/30 03:26:39;;;;;;;9.33;3.57;;;10.90;99.90;;;;;;5049595;28;21436;-57
2023/05/30 03:29:08;;;;;;;9.87;3.00;;;10.80;99.90;;;;;;5050820;28;20735;-57
2023/05/30 03:31:37;;;;;;;7.97;2.87;;;10.70;99.90;;;;;;5051038;28;20256;-57
2023/05/30 03:34:06;;;;;;;7.40;3.07;;;10.60;99.90;;;;;;5048296;28;20257;-56
2023/05/30 03:36:35;;;;;;;8.03;2.90;;;10.80;99.90;;;;;;5052310;28;20680;-57
2023/05/30 03:39:03;;;;;;;8.33;3.17;;;10.80;99.90;;;;;;5051539;28;20261;-56
2023/05/30 03:41:32;;;;;;;8.13;3.13;;;11.00;99.90;;;;;;5051065;28;20222;-57
2023/05/30 03:44:00;;;;;;;10.93;3.60;;;11.00;99.90;;;;;;5045938;28;20221;-56
2023/05/30 03:46:28;;;;;;;9.70;3.90;;;11.00;99.90;;;;;;5052194;28;20708;-56
2023/05/30 03:48:57;;;;;;;9.77;3.87;;;11.00;99.90;;;;;;5047472;28;20240;-56
2023/05/30 03:51:26;;;;;;;10.17;3.80;;;11.00;99.90;;;;;;5050910;28;20221;-55
2023/05/30 03:53:54;;;;;;;13.70;3.57;;;10.90;99.90;;;;;;5052416;28;20286;-57
2023/05/30 03:56:22;;;;;;;11.23;3.47;;;11.00;99.90;;;;;;5052447;28;20585;-57
2023/05/30 03:58:50;;;;;;;11.47;3.73;;;11.00;99.90;;;;;;5052707;28;20304;-57
2023/05/30 04:01:18;;;;;;;11.53;3.70;;;11.20;99.90;;;;;;5044234;28;20252;-57
2023/05/30 04:03:47;;;;;;;11.17;3.53;;;11.10;99.90;;;;;;5050143;28;20276;-56
2023/05/30 04:06:17;;;;;;;10.50;3.83;;;11.10;99.90;;;;;;5051232;28;20275;-56
2023/05/30 04:08:46;;;;;;;14.37;3.93;;;11.10;99.90;;;;;;5050809;28;20273;-57
2023/05/30 04:11:16;;;;;;;9.23;3.27;;;11.20;99.90;;;;;;5051038;28;20283;-57
2023/05/30 04:13:44;;;;;;;13.50;3.73;;;11.10;99.90;;;;;;5049643;28;20233;-57
2023/05/30 04:16:12;;;;;;;11.60;3.57;;;11.10;99.90;;;;;;5050651;28;20336;-57
2023/05/30 04:18:43;;;;;;;16.80;5.00;;;11.20;99.90;;;;;;5050680;28;20226;-57
2023/05/30 04:21:13;;;;;;;11.77;4.10;;;11.50;99.90;;;;;;5049163;28;20250;-57
2023/05/30 04:23:42;;;;;;;11.77;4.03;;;11.40;99.90;;;;;;5050960;28;20245;-57
2023/05/30 04:26:12;;;;;;;11.33;3.90;;;11.50;99.90;;;;;;5050885;28;20226;-57
2023/05/30 04:28:41;;;;;;;12.50;4.57;;;11.40;99.90;;;;;;5051161;28;20246;-54
2023/05/30 04:31:10;;;;;;;13.97;4.40;;;11.40;99.90;;;;;;5048149;28;20317;-56
2023/05/30 04:33:50;;;;;;;13.80;4.27;;;11.30;99.90;;;;;;5040412;28;20223;-57
2023/05/30 04:36:19;;;;;;;14.07;4.50;;;11.40;99.90;;;;;;5046045;28;20226;-57
2023/05/30 04:38:52;;;;;;;11.83;4.50;;;11.60;99.90;;;;;;5041530;28;20711;-56
2023/05/30 04:41:24;;;;;;;14.67;4.60;;;11.60;99.90;;;;;;5041773;28;20231;-57
2023/05/30 04:43:54;;;;;;;17.80;5.00;;;11.70;99.90;;;;;;5046104;28;20322;-57
2023/05/30 04:46:27;;;;;;;17.03;6.13;;;11.50;99.90;;;;;;5037321;28;20280;-56
2023/05/30 04:49:00;;;;;;;15.47;5.57;;;11.70;99.90;;;;;;5035188;28;20222;-56
2023/05/30 04:51:30;;;;;;;17.13;5.90;;;11.60;99.90;;;;;;5037284;28;20234;-54
2023/05/30 04:58:12;;;;;;;18.97;6.33;;;11.60;99.90;;;;;;5038894;28;20270;-53
2023/05/30 05:00:43;;;;;;;20.77;5.87;;;11.60;99.90;;;;;;5040943;28;20362;-56
2023/05/30 05:03:12;;;;;;;16.47;5.43;;;11.70;99.90;;;;;;5037634;28;20319;-55
2023/05/30 05:05:43;;;;;;;16.73;6.00;;;11.70;99.90;;;;;;5039592;28;20554;-54
2023/05/30 05:08:13;;;;;;;17.40;5.10;;;11.80;99.90;;;;;;5039029;28;20231;-56
2023/05/30 05:10:42;;;;;;;19.83;6.00;;;11.80;99.90;;;;;;5043458;28;20660;-56
2023/05/30 05:13:13;;;;;;;12.67;4.73;;;12.00;99.90;;;;;;5040851;28;20678;-55
2023/05/30 05:15:46;;;;;;;16.57;5.43;;;12.00;99.90;;;;;;5036979;28;20754;-54
2023/05/30 05:18:14;;;;;;;16.43;5.80;;;12.00;99.90;;;;;;5043073;28;20227;-56
2023/05/30 05:20:43;;;;;;;12.27;5.00;;;12.00;99.90;;;;;;5039116;28;20317;-56
2023/05/30 05:23:11;;;;;;;15.03;4.77;;;12.00;99.90;;;;;;5039143;28;20313;-55
2023/05/30 05:25:39;;;;;;;11.10;4.70;;;12.00;99.90;;;;;;5037347;28;20222;-56
2023/05/30 05:28:07;;;;;;;13.13;5.20;;;12.10;99.90;;;;;;5037091;28;20223;-56
2023/05/30 05:30:36;;;;;;;14.47;5.40;;;12.20;99.90;;;;;;5036987;28;20245;-56
2023/05/30 05:33:05;;;;;;;14.77;5.40;;;12.20;99.90;;;;;;5036335;28;20227;-55
2023/05/30 05:35:35;;;;;;;14.17;6.00;;;12.20;99.90;;;;;;5039432;28;20232;-54
2023/05/30 05:38:03;;;;;;;10.30;5.30;;;12.30;99.90;;;;;;5043327;28;20242;-56
2023/05/30 05:40:31;;;;;;;15.23;6.17;;;12.30;99.90;;;;;;5039499;28;20230;-54
2023/05/30 05:42:59;;;;;;;18.40;6.83;;;12.20;99.90;;;;;;5040149;28;20803;-54
2023/05/30 05:45:29;;;;;;;19.60;7.27;;;12.20;99.90;;;;;;5036503;28;20229;-53
2023/05/30 05:47:58;;;;;;;15.23;7.20;;;12.20;99.90;;;;;;5040074;28;20305;-54
2023/05/30 05:50:26;;;;;;;14.90;7.53;;;12.20;99.90;;;;;;5038152;28;20230;-55
2023/05/30 05:52:54;;;;;;;16.60;7.80;;;12.20;99.90;;;;;;5039013;28;20597;-54
2023/05/30 05:55:22;;;;;;;18.23;8.10;;;12.20;99.90;;;;;;5036621;28;20851;-56
2023/05/30 05:57:51;;;;;;;15.57;8.00;;;12.40;99.90;;;;;;5036326;28;20242;-55
2023/05/30 06:00:26;;;;;;;14.80;7.97;;;12.50;99.90;;;;;;5037590;28;20245;-55
2023/05/30 06:02:54;;;;;;;19.77;9.00;;;12.60;99.90;;;;;;5037717;28;20769;-56
2023/05/30 06:05:24;;;;;;;16.23;7.77;;;12.50;99.90;;;;;;5035408;28;20580;-56
2023/05/30 06:07:52;;;;;;;16.53;7.30;;;12.60;99.90;;;;;;5036254;28;20247;-56
2023/05/30 06:10:20;;;;;;;19.47;8.90;;;12.60;99.90;;;;;;5038368;28;20238;-54
2023/05/30 06:12:49;;;;;;;16.10;7.50;;;12.50;99.90;;;;;;5038754;28;20566;-56
2023/05/30 06:15:17;;;;;;;19.67;8.23;;;12.50;99.90;;;;;;5035389;28;20586;-56
2023/05/30 06:17:45;;;;;;;14.87;8.27;;;12.70;99.90;;;;;;5038144;28;20714;-56
2023/05/30 06:20:14;;;;;;;18.27;8.03;;;12.60;99.90;;;;;;5032036;28;20242;-54
2023/05/30 06:22:43;;;;;;;17.27;8.10;;;12.70;99.90;;;;;;5038642;28;20245;-56
2023/05/30 06:25:11;;;;;;;14.20;7.60;;;12.70;99.90;;;;;;5034813;28;20245;-55
2023/05/30 06:27:39;;;;;;;18.23;8.40;;;12.70;99.90;;;;;;5038233;28;20284;-55
2023/05/30 06:30:08;;;;;;;13.77;7.60;;;12.70;99.90;;;;;;5040118;28;20227;-56
2023/05/30 06:32:36;;;;;;;17.73;8.67;;;12.70;99.90;;;;;;5036866;28;20242;-56
2023/05/30 06:35:06;;;;;;;15.90;7.47;;;12.80;99.90;;;;;;5036819;28;20235;-54
2023/05/30 06:37:34;;;;;;;22.37;8.30;;;12.80;99.90;;;;;;5037534;28;20318;-55
2023/05/30 06:40:04;;;;;;;16.67;7.97;;;12.90;99.90;;;;;;5044630;28;20565;-56
2023/05/30 06:42:34;;;;;;;12.30;8.00;;;12.80;99.90;;;;;;5050755;28;20238;-54
2023/05/30 06:45:05;;;;;;;12.87;7.73;;;12.70;99.90;;;;;;5048544;28;20259;-54
2023/05/30 06:47:33;;;;;;;13.70;8.33;;;12.70;99.90;;;;;;5050503;28;20219;-55
2023/05/30 06:50:02;;;;;;;14.53;7.60;;;12.60;99.90;;;;;;5049477;28;20235;-54
2023/05/30 06:52:30;;;;;;;12.67;7.40;;;12.60;99.90;;;;;;5051346;28;20231;-56
2023/05/30 06:54:58;;;;;;;15.73;7.87;;;12.60;99.90;;;;;;5050522;28;20736;-57
2023/05/30 06:57:27;;;;;;;16.07;6.63;;;12.70;99.90;;;;;;5051992;28;20224;-54
2023/05/30 06:59:55;;;;;;;12.77;6.77;;;12.60;99.90;;;;;;5050316;28;20222;-56
2023/05/30 07:02:23;;;;;;;17.73;7.30;;;12.70;99.90;;;;;;5053555;28;20234;-54
2023/05/30 07:04:51;;;;;;;13.43;6.63;;;12.70;99.90;;;;;;5048028;28;20250;-56
2023/05/30 07:07:20;;;;;;;11.90;6.87;;;12.90;99.90;;;;;;5046500;28;20238;-57
2023/05/30 07:09:48;;;;;;;13.10;6.97;;;13.10;99.90;;;;;;5054484;28;20573;-54
2023/05/30 07:12:16;;;;;;;11.83;5.83;;;13.10;99.90;;;;;;5055017;28;20232;-55
2023/05/30 07:14:45;;;;;;;15.57;6.30;;;13.10;99.90;;;;;;5050750;28;20242;-54
2023/05/30 07:17:13;;;;;;;10.63;4.60;;;13.20;99.90;;;;;;5047955;28;20246;-55
2023/05/30 07:19:41;;;;;;;10.33;5.10;;;13.20;99.90;;;;;;5053002;28;20897;-54
2023/05/30 07:22:09;;;;;;;9.10;4.10;;;13.30;99.90;;;;;;5052279;28;20247;-55
2023/05/30 07:24:37;;;;;;;8.87;4.10;;;13.40;99.90;;;;;;5045271;28;20902;-56
2023/05/30 07:27:06;;;;;;;8.10;3.73;;;13.40;99.90;;;;;;5053999;28;20268;-56
2023/05/30 07:29:34;;;;;;;7.70;3.30;;;13.40;99.90;;;;;;5046792;28;20227;-57
2023/05/30 07:32:04;;;;;;;5.07;3.40;;;13.50;99.90;;;;;;5043976;28;20238;-53
2023/05/30 07:34:32;;;;;;;9.00;4.27;;;13.50;99.90;;;;;;5049594;28;20236;-56
2023/05/30 07:37:00;;;;;;;12.20;5.10;;;13.50;99.90;;;;;;5049250;28;20597;-55
2023/05/30 07:39:28;;;;;;;9.73;5.80;;;13.50;99.90;;;;;;5049556;28;20304;-57
2023/05/30 07:41:56;;;;;;;11.80;7.40;;;13.50;99.90;;;;;;5050976;28;20702;-54
2023/05/30 07:44:24;;;;;;;10.80;5.97;;;13.50;99.90;;;;;;5045656;28;20697;-54
2023/05/30 07:46:52;;;;;;;11.67;5.93;;;13.50;99.90;;;;;;5052714;28;20249;-55
2023/05/30 07:49:22;;;;;;;12.00;7.07;;;13.40;99.90;;;;;;5047878;28;20234;-55
2023/05/30 07:51:50;;;;;;;11.87;7.53;;;13.30;99.90;;;;;;5040424;28;20230;-54
2023/05/30 07:54:18;;;;;;;13.20;7.20;;;13.20;99.90;;;;;;5036541;28;20228;-54
2023/05/30 07:56:46;;;;;;;11.60;6.97;;;13.30;99.90;;;;;;5035841;28;20240;-57
2023/05/30 07:59:14;;;;;;;14.87;7.83;;;13.30;99.90;;;;;;5037127;28;20225;-56
2023/05/30 08:01:45;;;;;;;11.97;7.47;;;13.20;99.90;;;;;;5034701;28;21129;-56
2023/05/30 08:04:13;;;;;;;13.60;7.97;;;13.10;99.90;;;;;;5038323;28;20310;-54
2023/05/30 08:06:42;;;;;;;12.40;7.07;;;13.20;99.90;;;;;;5035029;28;20715;-56
2023/05/30 08:09:10;;;;;;;12.50;7.17;;;13.40;99.90;;;;;;5033428;28;20239;-55
2023/05/30 08:11:38;;;;;;;12.73;7.73;;;13.50;99.90;;;;;;5035594;28;20234;-56
2023/05/30 08:14:06;;;;;;;11.80;7.20;;;13.50;99.90;;;;;;5039781;28;20230;-57
2023/05/30 08:16:35;;;;;;;14.27;7.50;;;13.60;99.90;;;;;;5036979;28;20572;-53
2023/05/30 08:19:03;;;;;;;10.93;7.03;;;13.60;99.90;;;;;;5039611;28;20523;-56
2023/05/30 08:21:32;;;;;;;11.70;6.90;;;13.70;99.90;;;;;;5037770;28;20323;-55
2023/05/30 08:24:01;;;;;;;9.63;6.60;;;13.60;99.90;;;;;;5033598;28;20236;-56
2023/05/30 08:26:32;;;;;;;9.00;6.40;;;13.70;99.90;;;;;;5033178;28;20316;-55
2023/05/30 08:29:03;;;;;;;11.43;6.80;;;13.70;99.90;;;;;;5036810;28;20877;-56
2023/05/30 08:31:31;;;;;;;10.83;6.87;;;13.60;99.90;;;;;;5038597;28;20282;-55
2023/05/30 08:34:02;;;;;;;10.00;6.70;;;13.50;99.90;;;;;;5038281;28;20258;-55
2023/05/30 08:36:31;;;;;;;8.77;6.13;;;13.50;99.90;;;;;;5038521;28;20236;-56
2023/05/30 08:39:01;;;;;;;10.87;5.90;;;13.70;99.90;;;;;;5040238;28;20880;-56
2023/05/30 08:41:32;;;;;;;10.13;6.43;;;13.70;99.90;;;;;;5039133;28;20255;-54
2023/05/30 08:44:00;;;;;;;10.90;6.60;;;13.60;99.90;;;;;;5039044;28;20254;-56
2023/05/30 08:46:29;;;;;;;10.23;6.47;;;13.60;99.90;;;;;;5040238;28;20234;-56
2023/05/30 08:48:58;;;;;;;9.87;6.70;;;13.60;99.90;;;;;;5037681;28;20659;-54
2023/05/30 08:51:30;;;;;;;8.13;5.67;;;13.60;99.90;;;;;;5038942;28;20227;-54
2023/05/30 08:54:06;;;;;;;9.40;5.87;;;13.50;99.90;;;;;;5040316;28;20235;-56
2023/05/30 08:56:38;;;;;;;10.77;5.90;;;13.50;99.90;;;;;;5033660;28;20229;-56
2023/05/30 08:59:08;;;;;;;8.93;5.60;;;13.40;99.90;;;;;;5042383;28;20230;-57
2023/05/30 09:01:37;;;;;;;7.87;4.97;;;13.40;99.90;;;;;;5038885;28;20244;-57
2023/05/30 09:04:08;;;;;;;5.37;4.60;;;13.40;99.90;;;;;;5046610;28;20231;-55
2023/05/30 09:06:39;;;;;;;7.07;5.07;;;13.40;99.90;;;;;;5053575;28;20230;-57
2023/05/30 09:09:12;;;;;;;7.73;5.47;;;13.40;99.90;;;;;;5052630;28;20216;-57
2023/05/30 09:11:41;;;;;;;11.97;6.20;;;13.30;99.90;;;;;;5054362;28;20559;-56
2023/05/30 09:14:10;;;;;;;9.57;6.97;;;13.30;99.90;;;;;;5058023;28;20702;-54
2023/05/30 09:16:38;;;;;;;6.40;5.80;;;13.30;99.90;;;;;;5051844;28;20227;-56
2023/05/30 09:19:07;;;;;;;7.27;6.33;;;13.40;99.90;;;;;;5059116;28;20234;-56
2023/05/30 09:21:37;;;;;;;8.23;6.30;;;13.50;99.90;;;;;;5050847;28;20254;-56
2023/05/30 09:24:06;;;;;;;8.90;6.17;;;13.70;99.90;;;;;;5054939;28;20714;-55
2023/05/30 09:26:35;;;;;;;7.20;6.50;;;13.90;99.90;;;;;;5049179;28;20813;-53
2023/05/30 09:29:09;;;;;;;6.63;5.80;;;14.10;99.90;;;;;;5054347;28;20310;-56
2023/05/30 09:31:38;;;;;;;5.80;5.20;;;14.50;99.90;;;;;;5053619;28;20281;-55
2023/05/30 09:34:06;;;;;;;8.30;5.70;;;15.00;99.90;;;;;;5055225;28;20768;-56
2023/05/30 09:36:35;;;;;;;5.63;4.90;;;15.30;99.90;;;;;;5052218;28;20813;-55
2023/05/30 09:39:05;;;;;;;5.33;4.57;;;15.60;99.90;;;;;;5051210;28;20228;-53
2023/05/30 09:41:35;;;;;;;5.23;3.90;;;16.40;99.90;;;;;;5050250;28;20228;-55
2023/05/30 09:44:05;;;;;;;4.53;3.97;;;17.40;99.90;;;;;;5052604;28;21089;-56
2023/05/30 09:46:35;;;;;;;5.77;4.13;;;18.30;99.90;;;;;;5049529;28;20591;-55
2023/05/30 09:49:12;;;;;;;4.20;3.10;;;19.30;99.90;;;;;;5050841;28;20580;-56
2023/05/30 09:51:40;;;;;;;4.43;3.13;;;18.80;99.90;;;;;;5053949;28;20326;-55
2023/05/30 09:54:09;;;;;;;6.30;3.90;;;18.30;99.90;;;;;;5052184;28;20222;-57
2023/05/30 09:56:39;;;;;;;4.90;3.87;;;17.90;99.90;;;;;;5052712;28;20220;-57
2023/05/30 09:59:09;;;;;;;4.90;4.50;;;17.50;99.90;;;;;;5051108;28;20251;-57
2023/05/30 10:01:39;;;;;;;6.53;5.17;;;17.00;99.90;;;;;;5052773;28;20227;-56
2023/05/30 10:04:12;;;;;;;5.63;5.10;;;16.90;99.90;;;;;;5050305;28;20227;-57
2023/05/30 10:06:42;;;;;;;6.20;5.60;;;16.80;99.90;;;;;;5050037;28;20235;-57
2023/05/30 10:09:11;;;;;;;5.87;5.37;;;16.90;99.90;;;;;;5050651;28;20216;-56
2023/05/30 10:11:41;;;;;;;7.70;4.60;;;17.10;99.90;;;;;;5057846;28;20711;-56
2023/05/30 10:14:11;;;;;;;6.07;4.47;;;17.40;99.90;;;;;;5052076;28;20228;-57
2023/05/30 10:16:45;;;;;;;4.80;4.30;;;17.40;99.90;;;;;;5050696;28;20578;-57
2023/05/30 10:19:17;;;;;;;4.97;4.03;;;17.70;99.90;;;;;;5054002;28;20703;-56
2023/05/30 10:21:46;;;;;;;4.07;3.77;;;17.80;99.90;;;;;;5053114;28;20252;-57
2023/05/30 10:24:16;;;;;;;4.37;3.67;;;18.00;99.90;;;;;;5052146;28;20233;-54
2023/05/30 10:26:50;;;;;;;4.53;3.90;;;18.10;99.90;;;;;;5055673;28;20240;-56
2023/05/30 10:29:20;;;;;;;5.13;4.07;;;17.60;99.90;;;;;;5052447;28;20315;-55
2023/05/30 10:31:51;;;;;;;3.80;3.53;;;17.50;99.90;;;;;;5052843;28;20281;-56
2023/05/30 10:34:24;;;;;;;3.70;3.40;;;17.30;99.90;;;;;;5053113;28;20669;-54
2023/05/30 10:36:53;;;;;;;4.07;3.67;;;17.40;99.90;;;;;;5050731;28;20238;-55
2023/05/30 10:39:41;;;;;;;4.10;3.73;;;17.50;99.90;;;;;;5051943;28;20707;-54
2023/05/30 10:42:18;;;;;;;3.97;3.03;;;17.60;99.90;;;;;;5052840;28;20323;-56
2023/05/30 10:44:54;;;;;;;4.27;3.53;;;17.60;99.90;;;;;;5050613;28;20239;-54
2023/05/30 10:47:38;;;;;;;4.20;3.30;;;17.50;99.90;;;;;;5051789;28;20316;-54
2023/05/30 10:50:14;;;;;;;3.53;3.33;;;17.50;99.90;;;;;;5051958;28;20228;-57
2023/05/30 10:52:44;;;;;;;3.33;3.03;;;17.40;99.90;;;;;;5052566;28;20237;-56
2023/05/30 10:55:12;;;;;;;4.00;3.60;;;17.40;99.90;;;;;;5048891;28;20587;-55
2023/05/30 10:57:42;;;;;;;3.77;3.47;;;17.30;99.90;;;;;;5051622;28;20228;-56
2023/05/30 11:00:18;;;;;;;4.47;3.90;;;17.20;99.90;;;;;;5051493;28;20228;-53
2023/05/30 11:02:52;;;;;;;3.80;3.40;;;17.20;99.90;;;;;;5052188;28;20277;-57
2023/05/30 11:05:24;;;;;;;4.93;4.23;;;17.20;99.90;;;;;;5049162;28;20583;-56
2023/05/30 11:07:53;;;;;;;3.83;3.53;;;17.30;99.90;;;;;;5053104;28;20227;-54
2023/05/30 11:10:28;;;;;;;4.10;3.70;;;17.20;99.90;;;;;;5052973;28;20699;-56
2023/05/30 11:13:09;;;;;;;4.17;3.77;;;17.10;99.90;;;;;;5052537;28;20748;-54
2023/05/30 11:15:42;;;;;;;3.83;3.53;;;17.10;99.90;;;;;;5048890;28;20233;-57
2023/05/30 11:18:18;;;;;;;4.80;4.40;;;17.10;99.90;;;;;;5052174;28;20229;-56
2023/05/30 11:20:53;;;;;;;4.20;3.60;;;17.30;99.90;;;;;;5045550;28;20232;-55
2023/05/30 11:23:23;;;;;;;4.77;4.37;;;17.40;99.90;;;;;;5039955;28;20300;-56
2023/05/30 11:25:58;;;;;;;4.40;4.00;;;17.60;99.90;;;;;;5040139;28;20222;-55
2023/05/30 11:28:37;;;;;;;3.67;3.27;;;17.70;99.90;;;;;;5042410;28;20223;-56
2023/05/30 11:31:19;;;;;;;5.23;4.13;;;17.70;99.90;;;;;;5043438;28;20233;-57
2023/05/30 11:33:51;;;;;;;6.00;4.43;;;17.70;99.90;;;;;;5042194;28;20269;-56
2023/05/30 11:36:19;;;;;;;4.93;4.30;;;17.70;99.90;;;;;;5039326;28;20552;-57
2023/05/30 11:38:48;;;;;;;4.60;4.20;;;17.60;99.90;;;;;;5041784;28;20228;-57
2023/05/30 11:41:16;;;;;;;4.50;4.10;;;17.60;99.90;;;;;;5043225;28;20231;-57
2023/05/30 11:43:46;;;;;;;4.77;4.27;;;17.60;99.90;;;;;;5041107;28;20236;-55
2023/05/30 11:46:18;;;;;;;4.30;4.00;;;17.60;99.90;;;;;;5040303;28;20225;-57
2023/05/30 11:48:46;;;;;;;4.87;4.37;;;17.80;99.90;;;;;;5042708;28;20223;-57
2023/05/30 11:51:15;;;;;;;5.50;4.50;;;17.60;99.90;;;;;;5042830;28;20302;-57
2023/05/30 11:53:45;;;;;;;4.97;4.50;;;17.70;99.90;;;;;;5043016;28;20262;-55
2023/05/30 11:56:14;;;;;;;4.73;4.03;;;17.70;99.90;;;;;;5041271;28;20627;-55
2023/05/30 11:58:43;;;;;;;4.70;4.00;;;17.90;99.90;;;;;;5042614;28;20228;-57
2023/05/30 12:01:13;;;;;;;5.47;4.27;;;18.00;99.90;;;;;;5044845;28;20236;-56
2023/05/30 12:03:43;;;;;;;4.93;4.43;;;18.10;99.90;;;;;;5052147;28;20235;-56
2023/05/30 12:06:13;;;;;;;4.83;4.13;;;18.20;99.90;;;;;;5058617;28;20220;-56
2023/05/30 12:08:41;;;;;;;4.63;4.33;;;18.40;99.90;;;;;;5046814;28;20316;-56
2023/05/30 12:11:11;;;;;;;5.43;4.07;;;18.40;99.90;;;;;;5046979;28;20243;-52
2023/05/30 12:13:40;;;;;;;5.53;4.37;;;18.50;99.90;;;;;;5046942;28;20299;-57
2023/05/30 12:16:10;;;;;;;4.60;4.00;;;18.50;99.90;;;;;;5041994;28;20287;-57
2023/05/30 12:18:39;;;;;;;4.07;3.67;;;18.70;99.90;;;;;;5046296;28;20238;-56
2023/05/30 12:21:12;;;;;;;4.00;3.70;;;18.70;99.90;;;;;;5045565;28;20868;-56
2023/05/30 12:23:42;;;;;;;4.63;4.23;;;18.70;99.90;;;;;;5045243;28;20705;-56
2023/05/30 12:26:17;;;;;;;5.27;4.27;;;18.50;99.90;;;;;;5050813;28;20232;-53
2023/05/30 12:28:46;;;;;;;5.03;4.53;;;18.40;99.90;;;;;;5045594;28;21693;-57
2023/05/30 12:31:22;;;;;;;8.13;4.43;;;18.40;99.90;;;;;;5046064;28;20229;-56
2023/05/30 12:33:52;;;;;;;4.97;4.20;;;18.30;99.90;;;;;;5044364;28;20305;-56
2023/05/30 12:36:20;;;;;;;6.43;4.53;;;18.50;99.90;;;;;;5043339;28;20260;-55
2023/05/30 12:38:58;;;;;;;4.43;4.03;;;18.70;99.90;;;;;;5044929;28;20574;-55
2023/05/30 12:41:28;;;;;;;4.43;3.87;;;18.50;99.90;;;;;;5044959;28;20229;-56
2023/05/30 12:43:56;;;;;;;4.80;4.40;;;18.50;99.90;;;;;;5046479;28;20280;-56
2023/05/30 12:46:26;;;;;;;4.60;3.80;;;18.60;99.90;;;;;;5044059;28;20226;-53
2023/05/30 12:48:56;;;;;;;5.73;4.40;;;18.70;99.90;;;;;;5045701;28;21164;-54
2023/05/30 12:51:24;;;;;;;4.97;4.47;;;18.70;99.90;;;;;;5046595;28;20234;-56
2023/05/30 12:53:53;;;;;;;6.00;4.47;;;18.60;99.90;;;;;;5044929;28;20325;-56
2023/05/30 12:56:22;;;;;;;5.50;4.73;;;18.50;99.90;;;;;;5045024;28;20230;-55
2023/05/30 12:58:50;;;;;;;6.40;4.37;;;18.80;99.90;;;;;;5046884;28;21023;-55
2023/05/30 13:01:18;;;;;;;5.23;4.30;;;19.00;99.90;;;;;;5045291;28;20289;-57
2023/05/30 13:03:46;;;;;;;4.97;4.47;;;18.80;99.90;;;;;;5046251;28;20230;-57